WXM80 ListenWXM80 Stop

You find our weather info also at:

UK Metoffice

WeatherCloud

Weather Underground

Northeastern Weather Network

AWEKAS

Citizen Weather Observer Program (CWOP)

HAMweather, WeatherForYou, PWS Weather


Weather Underground History page Text

Daily Summary for August 14, 2017 Units:  Both    English   Metric
« Previous Day
Next Day »
Daily Weekly Monthly Yearly Custom
  High: Low: Average:
Temperature: 79.4 °F /  26.3 °C 65.0 °F /  18.3 °C 72.5 °F /  22.5 °C
Dew Point: 71.4 °F /  21.9 °C 62.6 °F /  17 °C 67.1 °F /  19.5 °C
Humidity: 96 % 73 % 84 %
Wind Speed: 2.5 mph /  4 km/h - 0.3 mph /  0.5 km/h
Wind Gust: 4.6 mph /  7.4 km/h - -
Wind:- - ENE
Pressure: 30.00 in /  1015.8 hPa 29.90 in /  1012.4 hPa -
Precipitation: 0.00 in /  0 mm    
Historical Graphs
 
 
Tabular Data for August 14, 2017
Time Temperature Dew Point Pressure Wind Wind Speed Wind Gust Humidity Rainfall Rate (Hourly)
00:01 68.3 °F /  20.2 °C 63.9 °F /  17.7 °C 29.97 in /  1014.8 hPa Calm     86 % 0.00 in /  0 mm
00:06 68.1 °F /  20.1 °C 64.1 °F /  17.8 °C 29.97 in /  1014.8 hPa Calm     87 % 0.00 in /  0 mm
00:11 68.0 °F /  20 °C 64.0 °F /  17.8 °C 29.97 in /  1014.8 hPa Calm     87 % 0.00 in /  0 mm
00:16 67.9 °F /  19.9 °C 63.9 °F /  17.7 °C 29.97 in /  1014.8 hPa Calm     87 % 0.00 in /  0 mm
00:21 67.8 °F /  19.9 °C 63.8 °F /  17.7 °C 29.97 in /  1014.8 hPa Calm     87 % 0.00 in /  0 mm
00:26 67.7 °F /  19.8 °C 63.7 °F /  17.6 °C 29.97 in /  1014.8 hPa Calm     87 % 0.00 in /  0 mm
00:31 67.6 °F /  19.8 °C 63.6 °F /  17.6 °C 29.97 in /  1014.8 hPa Calm     87 % 0.00 in /  0 mm
00:36 67.5 °F /  19.7 °C 63.5 °F /  17.5 °C 29.97 in /  1014.8 hPa Calm     87 % 0.00 in /  0 mm
00:41 67.4 °F /  19.7 °C 63.7 °F /  17.6 °C 29.97 in /  1014.8 hPa Calm     88 % 0.00 in /  0 mm
00:46 67.3 °F /  19.6 °C 63.6 °F /  17.6 °C 29.96 in /  1014.4 hPa Calm     88 % 0.00 in /  0 mm
00:51 67.2 °F /  19.6 °C 63.5 °F /  17.5 °C 29.96 in /  1014.4 hPa Calm     88 % 0.00 in /  0 mm
00:56 67.1 °F /  19.5 °C 63.7 °F /  17.6 °C 29.96 in /  1014.4 hPa Calm     89 % 0.00 in /  0 mm
01:01 67.0 °F /  19.4 °C 63.6 °F /  17.6 °C 29.96 in /  1014.4 hPa Calm     89 % 0.00 in /  0 mm
01:06 67.0 °F /  19.4 °C 63.6 °F /  17.6 °C 29.96 in /  1014.4 hPa Calm     89 % 0.00 in /  0 mm
01:11 66.8 °F /  19.3 °C 63.5 °F /  17.5 °C 29.97 in /  1014.8 hPa Calm     89 % 0.00 in /  0 mm
01:16 66.8 °F /  19.3 °C 63.5 °F /  17.5 °C 29.97 in /  1014.8 hPa Calm     89 % 0.00 in /  0 mm
01:19 66.7 °F /  19.3 °C 63.7 °F /  17.6 °C 29.97 in /  1014.8 hPa Calm     90 % 0.00 in /  0 mm
01:24 66.6 °F /  19.2 °C 63.3 °F /  17.4 °C 29.96 in /  1014.4 hPa Calm     89 % 0.00 in /  0 mm
01:29 66.5 °F /  19.2 °C 63.2 °F /  17.3 °C 29.97 in /  1014.8 hPa Calm     89 % 0.00 in /  0 mm
01:34 66.4 °F /  19.1 °C 63.1 °F /  17.3 °C 29.97 in /  1014.8 hPa Calm     89 % 0.00 in /  0 mm
01:39 66.4 °F /  19.1 °C 63.4 °F /  17.4 °C 29.97 in /  1014.8 hPa Calm     90 % 0.00 in /  0 mm
01:44 66.3 °F /  19.1 °C 63.3 °F /  17.4 °C 29.97 in /  1014.8 hPa Calm     90 % 0.00 in /  0 mm
01:49 66.2 °F /  19 °C 63.2 °F /  17.3 °C 29.97 in /  1014.8 hPa Calm     90 % 0.00 in /  0 mm
01:54 66.1 °F /  18.9 °C 63.1 °F /  17.3 °C 29.97 in /  1014.8 hPa Calm     90 % 0.00 in /  0 mm
02:00 66.0 °F /  18.9 °C 63.0 °F /  17.2 °C 29.97 in /  1014.8 hPa Calm     90 % 0.00 in /  0 mm
02:05 66.0 °F /  18.9 °C 63.0 °F /  17.2 °C 29.97 in /  1014.8 hPa Calm     90 % 0.00 in /  0 mm
02:10 65.9 °F /  18.8 °C 62.9 °F /  17.2 °C 29.96 in /  1014.4 hPa Calm     90 % 0.00 in /  0 mm
02:15 65.9 °F /  18.8 °C 62.9 °F /  17.2 °C 29.97 in /  1014.8 hPa Calm     90 % 0.00 in /  0 mm
02:20 65.8 °F /  18.8 °C 62.8 °F /  17.1 °C 29.96 in /  1014.4 hPa Calm     90 % 0.00 in /  0 mm
02:25 65.7 °F /  18.7 °C 63.0 °F /  17.2 °C 29.96 in /  1014.4 hPa Calm     91 % 0.00 in /  0 mm
02:30 65.7 °F /  18.7 °C 63.0 °F /  17.2 °C 29.97 in /  1014.8 hPa Calm     91 % 0.00 in /  0 mm
02:35 65.7 °F /  18.7 °C 63.0 °F /  17.2 °C 29.97 in /  1014.8 hPa Calm     91 % 0.00 in /  0 mm
02:40 65.6 °F /  18.7 °C 62.9 °F /  17.2 °C 29.97 in /  1014.8 hPa Calm     91 % 0.00 in /  0 mm
02:45 65.5 °F /  18.6 °C 62.8 °F /  17.1 °C 29.97 in /  1014.8 hPa Calm     91 % 0.00 in /  0 mm
02:50 65.5 °F /  18.6 °C 62.8 °F /  17.1 °C 29.97 in /  1014.8 hPa Calm     91 % 0.00 in /  0 mm
02:55 65.4 °F /  18.6 °C 62.7 °F /  17.1 °C 29.97 in /  1014.8 hPa Calm     91 % 0.00 in /  0 mm
03:00 65.4 °F /  18.6 °C 62.7 °F /  17.1 °C 29.97 in /  1014.8 hPa Calm     91 % 0.00 in /  0 mm
03:05 65.4 °F /  18.6 °C 62.7 °F /  17.1 °C 29.97 in /  1014.8 hPa Calm     91 % 0.00 in /  0 mm
03:10 65.3 °F /  18.5 °C 62.6 °F /  17 °C 29.98 in /  1015.1 hPa Calm     91 % 0.00 in /  0 mm
03:15 65.2 °F /  18.4 °C 62.8 °F /  17.1 °C 29.97 in /  1014.8 hPa Calm     92 % 0.00 in /  0 mm
03:20 65.2 °F /  18.4 °C 62.8 °F /  17.1 °C 29.97 in /  1014.8 hPa Calm     92 % 0.00 in /  0 mm
03:26 65.2 °F /  18.4 °C 62.8 °F /  17.1 °C 29.98 in /  1015.1 hPa Calm     92 % 0.00 in /  0 mm
03:31 65.1 °F /  18.4 °C 62.7 °F /  17.1 °C 29.97 in /  1014.8 hPa Calm     92 % 0.00 in /  0 mm
03:36 65.1 °F /  18.4 °C 62.7 °F /  17.1 °C 29.97 in /  1014.8 hPa Calm     92 % 0.00 in /  0 mm
03:41 65.0 °F /  18.3 °C 62.7 °F /  17.1 °C 29.97 in /  1014.8 hPa Calm     92 % 0.00 in /  0 mm
03:45 65.1 °F /  18.4 °C 62.7 °F /  17.1 °C 29.98 in /  1015.1 hPa WNW 0.1 mph /  0.2 km/h 1.2 mph /  1.9 km/h 92 % 0.00 in /  0 mm
03:50 65.1 °F /  18.4 °C 63.0 °F /  17.2 °C 29.97 in /  1014.8 hPa Calm     93 % 0.00 in /  0 mm
03:53 65.1 °F /  18.4 °C 63.0 °F /  17.2 °C 29.97 in /  1014.8 hPa Calm     93 % 0.00 in /  0 mm
03:58 65.1 °F /  18.4 °C 63.0 °F /  17.2 °C 29.97 in /  1014.8 hPa Calm     93 % 0.00 in /  0 mm
04:03 65.1 °F /  18.4 °C 63.0 °F /  17.2 °C 29.97 in /  1014.8 hPa Calm     93 % 0.00 in /  0 mm
04:08 65.1 °F /  18.4 °C 63.0 °F /  17.2 °C 29.97 in /  1014.8 hPa Calm     93 % 0.00 in /  0 mm
04:13 65.2 °F /  18.4 °C 63.1 °F /  17.3 °C 29.97 in /  1014.8 hPa Calm     93 % 0.00 in /  0 mm
04:18 65.2 °F /  18.4 °C 63.1 °F /  17.3 °C 29.97 in /  1014.8 hPa Calm     93 % 0.00 in /  0 mm
04:23 65.2 °F /  18.4 °C 63.1 °F /  17.3 °C 29.97 in /  1014.8 hPa Calm     93 % 0.00 in /  0 mm
04:28 65.2 °F /  18.4 °C 63.4 °F /  17.4 °C 29.97 in /  1014.8 hPa Calm     94 % 0.00 in /  0 mm
04:33 65.3 °F /  18.5 °C 63.5 °F /  17.5 °C 29.97 in /  1014.8 hPa Calm     94 % 0.00 in /  0 mm
04:38 65.3 °F /  18.5 °C 63.5 °F /  17.5 °C 29.97 in /  1014.8 hPa Calm     94 % 0.00 in /  0 mm
04:43 65.3 °F /  18.5 °C 63.5 °F /  17.5 °C 29.97 in /  1014.8 hPa Calm     94 % 0.00 in /  0 mm
04:48 65.3 °F /  18.5 °C 63.5 °F /  17.5 °C 29.97 in /  1014.8 hPa Calm     94 % 0.00 in /  0 mm
04:53 65.3 °F /  18.5 °C 63.5 °F /  17.5 °C 29.97 in /  1014.8 hPa Calm     94 % 0.00 in /  0 mm
04:58 65.3 °F /  18.5 °C 63.5 °F /  17.5 °C 29.97 in /  1014.8 hPa Calm     94 % 0.00 in /  0 mm
05:03 65.3 °F /  18.5 °C 63.5 °F /  17.5 °C 29.97 in /  1014.8 hPa Calm     94 % 0.00 in /  0 mm
05:08 65.3 °F /  18.5 °C 63.5 °F /  17.5 °C 29.97 in /  1014.8 hPa Calm     94 % 0.00 in /  0 mm
05:14 65.2 °F /  18.4 °C 63.4 °F /  17.4 °C 29.97 in /  1014.8 hPa Calm     94 % 0.00 in /  0 mm
05:19 65.2 °F /  18.4 °C 63.4 °F /  17.4 °C 29.97 in /  1014.8 hPa Calm     94 % 0.00 in /  0 mm
05:24 65.2 °F /  18.4 °C 63.4 °F /  17.4 °C 29.97 in /  1014.8 hPa Calm     94 % 0.00 in /  0 mm
05:29 65.2 °F /  18.4 °C 63.4 °F /  17.4 °C 29.97 in /  1014.8 hPa Calm     94 % 0.00 in /  0 mm
05:34 65.2 °F /  18.4 °C 63.4 °F /  17.4 °C 29.97 in /  1014.8 hPa Calm     94 % 0.00 in /  0 mm
05:39 65.2 °F /  18.4 °C 63.4 °F /  17.4 °C 29.97 in /  1014.8 hPa Calm     94 % 0.00 in /  0 mm
05:44 65.2 °F /  18.4 °C 63.4 °F /  17.4 °C 29.97 in /  1014.8 hPa Calm     94 % 0.00 in /  0 mm
05:49 65.2 °F /  18.4 °C 63.4 °F /  17.4 °C 29.97 in /  1014.8 hPa Calm     94 % 0.00 in /  0 mm
05:54 65.2 °F /  18.4 °C 63.4 °F /  17.4 °C 29.97 in /  1014.8 hPa Calm     94 % 0.00 in /  0 mm
05:59 65.2 °F /  18.4 °C 63.4 °F /  17.4 °C 29.98 in /  1015.1 hPa Calm     94 % 0.00 in /  0 mm
06:04 65.2 °F /  18.4 °C 63.4 °F /  17.4 °C 29.97 in /  1014.8 hPa Calm     94 % 0.00 in /  0 mm
06:09 65.2 °F /  18.4 °C 63.4 °F /  17.4 °C 29.97 in /  1014.8 hPa Calm     94 % 0.00 in /  0 mm
06:12 65.1 °F /  18.4 °C 63.3 °F /  17.4 °C 29.98 in /  1015.1 hPa Calm     94 % 0.00 in /  0 mm
06:17 65.1 °F /  18.4 °C 63.3 °F /  17.4 °C 29.98 in /  1015.1 hPa Calm     94 % 0.00 in /  0 mm
06:22 65.1 °F /  18.4 °C 63.3 °F /  17.4 °C 29.99 in /  1015.5 hPa Calm     94 % 0.00 in /  0 mm
06:27 65.0 °F /  18.3 °C 63.2 °F /  17.3 °C 29.99 in /  1015.5 hPa Calm     94 % 0.00 in /  0 mm
06:32 65.0 °F /  18.3 °C 63.2 °F /  17.3 °C 29.99 in /  1015.5 hPa Calm     94 % 0.00 in /  0 mm
06:37 65.0 °F /  18.3 °C 63.5 °F /  17.5 °C 29.99 in /  1015.5 hPa Calm     95 % 0.00 in /  0 mm
06:42 65.0 °F /  18.3 °C 63.5 °F /  17.5 °C 29.99 in /  1015.5 hPa Calm     95 % 0.00 in /  0 mm
06:47 65.1 °F /  18.4 °C 63.6 °F /  17.6 °C 29.99 in /  1015.5 hPa Calm     95 % 0.00 in /  0 mm
06:52 65.1 °F /  18.4 °C 63.6 °F /  17.6 °C 29.99 in /  1015.5 hPa Calm     95 % 0.00 in /  0 mm
06:58 65.2 °F /  18.4 °C 63.7 °F /  17.6 °C 29.99 in /  1015.5 hPa Calm     95 % 0.00 in /  0 mm
07:03 65.2 °F /  18.4 °C 63.7 °F /  17.6 °C 29.99 in /  1015.5 hPa Calm     95 % 0.00 in /  0 mm
07:08 65.3 °F /  18.5 °C 63.8 °F /  17.7 °C 30.00 in /  1015.8 hPa Calm     95 % 0.00 in /  0 mm
07:13 65.4 °F /  18.6 °C 63.9 °F /  17.7 °C 30.00 in /  1015.8 hPa Calm     95 % 0.00 in /  0 mm
07:18 65.6 °F /  18.7 °C 64.4 °F /  18 °C 30.00 in /  1015.8 hPa Calm     96 % 0.00 in /  0 mm
07:23 65.8 °F /  18.8 °C 64.6 °F /  18.1 °C 30.00 in /  1015.8 hPa Calm     96 % 0.00 in /  0 mm
07:28 66.1 °F /  18.9 °C 64.9 °F /  18.3 °C 30.00 in /  1015.8 hPa Calm     96 % 0.00 in /  0 mm
07:33 66.2 °F /  19 °C 65.0 °F /  18.3 °C 30.00 in /  1015.8 hPa Calm     96 % 0.00 in /  0 mm
07:38 66.5 °F /  19.2 °C 65.3 °F /  18.5 °C 30.00 in /  1015.8 hPa Calm   1.0 mph /  1.6 km/h 96 % 0.00 in /  0 mm
07:43 66.7 °F /  19.3 °C 65.5 °F /  18.6 °C 30.00 in /  1015.8 hPa ENE 1.2 mph /  1.9 km/h 3.5 mph /  5.6 km/h 96 % 0.00 in /  0 mm
07:48 67.0 °F /  19.4 °C 65.8 °F /  18.8 °C 30.00 in /  1015.8 hPa NE 1.3 mph /  2.1 km/h 3.5 mph /  5.6 km/h 96 % 0.00 in /  0 mm
07:53 67.2 °F /  19.6 °C 66.0 °F /  18.9 °C 30.00 in /  1015.8 hPa ENE 1.5 mph /  2.4 km/h 3.5 mph /  5.6 km/h 96 % 0.00 in /  0 mm
07:58 67.5 °F /  19.7 °C 66.0 °F /  18.9 °C 30.00 in /  1015.8 hPa NE 0.9 mph /  1.4 km/h 3.5 mph /  5.6 km/h 95 % 0.00 in /  0 mm
08:03 67.7 °F /  19.8 °C 65.9 °F /  18.8 °C 30.00 in /  1015.8 hPa NE 1.3 mph /  2.1 km/h 3.5 mph /  5.6 km/h 94 % 0.00 in /  0 mm
08:08 68.1 °F /  20.1 °C 66.0 °F /  18.9 °C 30.00 in /  1015.8 hPa ENE 0.2 mph /  0.3 km/h 3.5 mph /  5.6 km/h 93 % 0.00 in /  0 mm
08:13 68.5 °F /  20.3 °C 66.1 °F /  18.9 °C 30.00 in /  1015.8 hPa NE 0.3 mph /  0.5 km/h 3.5 mph /  5.6 km/h 92 % 0.00 in /  0 mm
08:18 68.9 °F /  20.5 °C 66.2 °F /  19 °C 30.00 in /  1015.8 hPa ENE 0.3 mph /  0.5 km/h 1.2 mph /  1.9 km/h 91 % 0.00 in /  0 mm
08:23 69.3 °F /  20.7 °C 66.2 °F /  19 °C 30.00 in /  1015.8 hPa Calm   1.2 mph /  1.9 km/h 90 % 0.00 in /  0 mm
08:28 69.7 °F /  20.9 °C 66.3 °F /  19.1 °C 29.99 in /  1015.5 hPa Calm   1.2 mph /  1.9 km/h 89 % 0.00 in /  0 mm
08:33 69.9 °F /  21.1 °C 66.2 °F /  19 °C 29.99 in /  1015.5 hPa Calm     88 % 0.00 in /  0 mm
08:38 70.2 °F /  21.2 °C 66.5 °F /  19.2 °C 30.00 in /  1015.8 hPa Calm     88 % 0.00 in /  0 mm
08:44 70.4 °F /  21.3 °C 66.3 °F /  19.1 °C 29.99 in /  1015.5 hPa Calm     87 % 0.00 in /  0 mm
08:48 70.6 °F /  21.4 °C 66.5 °F /  19.2 °C 30.00 in /  1015.8 hPa ENE 0.6 mph /  1 km/h 2.3 mph /  3.7 km/h 87 % 0.00 in /  0 mm
08:54 70.8 °F /  21.6 °C 66.1 °F /  18.9 °C 30.00 in /  1015.8 hPa ENE 0.3 mph /  0.5 km/h 2.3 mph /  3.7 km/h 85 % 0.00 in /  0 mm
08:59 71.0 °F /  21.7 °C 65.9 °F /  18.8 °C 30.00 in /  1015.8 hPa NE 2.5 mph /  4 km/h 3.5 mph /  5.6 km/h 84 % 0.00 in /  0 mm
09:04 71.2 °F /  21.8 °C 66.1 °F /  18.9 °C 30.00 in /  1015.8 hPa NE 0.3 mph /  0.5 km/h 1.2 mph /  1.9 km/h 84 % 0.00 in /  0 mm
09:09 71.5 °F /  21.9 °C 66.4 °F /  19.1 °C 30.00 in /  1015.8 hPa Calm   1.2 mph /  1.9 km/h 84 % 0.00 in /  0 mm
09:14 71.8 °F /  22.1 °C 66.4 °F /  19.1 °C 30.00 in /  1015.8 hPa NE 0.5 mph /  0.8 km/h 1.2 mph /  1.9 km/h 83 % 0.00 in /  0 mm
09:19 72.0 °F /  22.2 °C 66.2 °F /  19 °C 29.99 in /  1015.5 hPa NE 0.4 mph /  0.6 km/h 2.0 mph /  3.2 km/h 82 % 0.00 in /  0 mm
09:24 72.3 °F /  22.4 °C 66.5 °F /  19.2 °C 29.99 in /  1015.5 hPa NNE 1.4 mph /  2.3 km/h 3.5 mph /  5.6 km/h 82 % 0.00 in /  0 mm
09:29 72.6 °F /  22.6 °C 66.8 °F /  19.3 °C 29.99 in /  1015.5 hPa NE 0.5 mph /  0.8 km/h 1.2 mph /  1.9 km/h 82 % 0.00 in /  0 mm
09:34 72.8 °F /  22.7 °C 66.6 °F /  19.2 °C 30.00 in /  1015.8 hPa NE 1.6 mph /  2.6 km/h 4.6 mph /  7.4 km/h 81 % 0.00 in /  0 mm
09:39 73.0 °F /  22.8 °C 67.2 °F /  19.6 °C 30.00 in /  1015.8 hPa ENE 0.7 mph /  1.1 km/h 2.3 mph /  3.7 km/h 82 % 0.00 in /  0 mm
09:44 73.3 °F /  22.9 °C 67.1 °F /  19.5 °C 30.00 in /  1015.8 hPa ENE 0.2 mph /  0.3 km/h 1.2 mph /  1.9 km/h 81 % 0.00 in /  0 mm
09:49 73.8 °F /  23.2 °C 68.0 °F /  20 °C 29.99 in /  1015.5 hPa ENE 0.8 mph /  1.3 km/h 2.0 mph /  3.2 km/h 82 % 0.00 in /  0 mm
09:54 74.3 °F /  23.5 °C 67.7 °F /  19.8 °C 29.99 in /  1015.5 hPa NE 0.8 mph /  1.3 km/h 1.2 mph /  1.9 km/h 80 % 0.00 in /  0 mm
09:59 74.6 °F /  23.7 °C 67.7 °F /  19.8 °C 30.00 in /  1015.8 hPa NE 0.6 mph /  1 km/h 2.0 mph /  3.2 km/h 79 % 0.00 in /  0 mm
10:04 75.0 °F /  23.9 °C 67.3 °F /  19.6 °C 29.99 in /  1015.5 hPa NE 2.1 mph /  3.4 km/h 4.6 mph /  7.4 km/h 77 % 0.00 in /  0 mm
10:09 75.3 °F /  24.1 °C 68.0 °F /  20 °C 29.99 in /  1015.5 hPa NE 1.3 mph /  2.1 km/h 3.5 mph /  5.6 km/h 78 % 0.00 in /  0 mm
10:14 75.7 °F /  24.3 °C 68.0 °F /  20 °C 29.99 in /  1015.5 hPa ENE 2.1 mph /  3.4 km/h 3.5 mph /  5.6 km/h 77 % 0.00 in /  0 mm
10:19 76.0 °F /  24.4 °C 68.3 °F /  20.2 °C 29.99 in /  1015.5 hPa NE 0.6 mph /  1 km/h 1.2 mph /  1.9 km/h 77 % 0.00 in /  0 mm
10:25 76.2 °F /  24.6 °C 68.5 °F /  20.3 °C 29.99 in /  1015.5 hPa North 0.3 mph /  0.5 km/h 2.3 mph /  3.7 km/h 77 % 0.00 in /  0 mm
10:26 76.2 °F /  24.6 °C 68.1 °F /  20.1 °C 29.99 in /  1015.5 hPa NE 1.7 mph /  2.7 km/h 3.0 mph /  4.8 km/h 76 % 0.00 in /  0 mm
10:31 76.1 °F /  24.5 °C 68.0 °F /  20 °C 29.99 in /  1015.5 hPa Calm   3.5 mph /  5.6 km/h 76 % 0.00 in /  0 mm
10:36 76.0 °F /  24.4 °C 67.9 °F /  19.9 °C 29.99 in /  1015.5 hPa Calm   2.0 mph /  3.2 km/h 76 % 0.00 in /  0 mm
10:41 76.1 °F /  24.5 °C 68.4 °F /  20.2 °C 29.99 in /  1015.5 hPa ENE 2.0 mph /  3.2 km/h 4.0 mph /  6.4 km/h 77 % 0.00 in /  0 mm
10:46 76.4 °F /  24.7 °C 68.3 °F /  20.2 °C 29.99 in /  1015.5 hPa NE 1.0 mph /  1.6 km/h 2.0 mph /  3.2 km/h 76 % 0.00 in /  0 mm
10:51 76.9 °F /  24.9 °C 68.8 °F /  20.4 °C 29.99 in /  1015.5 hPa NE 1.0 mph /  1.6 km/h 3.0 mph /  4.8 km/h 76 % 0.00 in /  0 mm
10:56 77.3 °F /  25.2 °C 69.1 °F /  20.6 °C 29.99 in /  1015.5 hPa NE 1.0 mph /  1.6 km/h 3.0 mph /  4.8 km/h 76 % 0.00 in /  0 mm
10:57 77.4 °F /  25.2 °C 68.9 °F /  20.5 °C 29.99 in /  1015.5 hPa NE 0.9 mph /  1.4 km/h 3.5 mph /  5.6 km/h 75 % 0.00 in /  0 mm
11:02 77.3 °F /  25.2 °C 68.8 °F /  20.4 °C 29.99 in /  1015.5 hPa NE 1.4 mph /  2.3 km/h 3.5 mph /  5.6 km/h 75 % 0.00 in /  0 mm
11:06 77.4 °F /  25.2 °C 68.9 °F /  20.5 °C 29.99 in /  1015.5 hPa ENE 2.2 mph /  3.5 km/h 3.5 mph /  5.6 km/h 75 % 0.00 in /  0 mm
11:11 77.4 °F /  25.2 °C 68.9 °F /  20.5 °C 29.99 in /  1015.5 hPa ENE 1.8 mph /  2.9 km/h 3.5 mph /  5.6 km/h 75 % 0.00 in /  0 mm
11:17 77.4 °F /  25.2 °C 69.2 °F /  20.7 °C 29.99 in /  1015.5 hPa Calm   3.5 mph /  5.6 km/h 76 % 0.00 in /  0 mm
11:22 77.5 °F /  25.3 °C 69.7 °F /  20.9 °C 29.99 in /  1015.5 hPa Calm   1.2 mph /  1.9 km/h 77 % 0.00 in /  0 mm
11:27 77.8 °F /  25.4 °C 69.6 °F /  20.9 °C 29.98 in /  1015.1 hPa NNE 1.8 mph /  2.9 km/h 4.6 mph /  7.4 km/h 76 % 0.00 in /  0 mm
11:32 78.1 °F /  25.6 °C 70.3 °F /  21.3 °C 29.99 in /  1015.5 hPa NE 1.7 mph /  2.7 km/h 3.5 mph /  5.6 km/h 77 % 0.00 in /  0 mm
11:37 78.2 °F /  25.7 °C 69.6 °F /  20.9 °C 29.98 in /  1015.1 hPa NE 1.4 mph /  2.3 km/h 4.6 mph /  7.4 km/h 75 % 0.00 in /  0 mm
11:42 78.1 °F /  25.6 °C 69.5 °F /  20.8 °C 29.99 in /  1015.5 hPa NE 1.0 mph /  1.6 km/h 3.5 mph /  5.6 km/h 75 % 0.00 in /  0 mm
11:47 78.1 °F /  25.6 °C 69.9 °F /  21.1 °C 29.98 in /  1015.1 hPa North 1.3 mph /  2.1 km/h 3.5 mph /  5.6 km/h 76 % 0.00 in /  0 mm
11:52 77.9 °F /  25.5 °C 69.3 °F /  20.7 °C 29.98 in /  1015.1 hPa NE 0.8 mph /  1.3 km/h 3.5 mph /  5.6 km/h 75 % 0.00 in /  0 mm
11:57 77.7 °F /  25.4 °C 69.5 °F /  20.8 °C 29.98 in /  1015.1 hPa NNE 1.2 mph /  1.9 km/h 2.3 mph /  3.7 km/h 76 % 0.00 in /  0 mm
12:02 77.5 °F /  25.3 °C 68.9 °F /  20.5 °C 29.98 in /  1015.1 hPa North 1.1 mph /  1.8 km/h 3.0 mph /  4.8 km/h 75 % 0.00 in /  0 mm
12:07 77.4 °F /  25.2 °C 69.2 °F /  20.7 °C 29.98 in /  1015.1 hPa NNE 1.0 mph /  1.6 km/h 2.3 mph /  3.7 km/h 76 % 0.00 in /  0 mm
12:12 77.1 °F /  25.1 °C 68.9 °F /  20.5 °C 29.98 in /  1015.1 hPa NE 1.1 mph /  1.8 km/h 3.5 mph /  5.6 km/h 76 % 0.00 in /  0 mm
12:17 76.8 °F /  24.9 °C 69.0 °F /  20.6 °C 29.98 in /  1015.1 hPa NE 0.8 mph /  1.3 km/h 4.0 mph /  6.4 km/h 77 % 0.00 in /  0 mm
12:22 76.7 °F /  24.8 °C 68.9 °F /  20.5 °C 29.98 in /  1015.1 hPa NE 0.4 mph /  0.6 km/h 2.3 mph /  3.7 km/h 77 % 0.00 in /  0 mm
12:27 76.7 °F /  24.8 °C 69.3 °F /  20.7 °C 29.97 in /  1014.8 hPa NE 2.3 mph /  3.7 km/h 4.0 mph /  6.4 km/h 78 % 0.00 in /  0 mm
12:32 77.0 °F /  25 °C 69.2 °F /  20.7 °C 29.97 in /  1014.8 hPa ENE 0.7 mph /  1.1 km/h 3.5 mph /  5.6 km/h 77 % 0.00 in /  0 mm
12:37 77.3 °F /  25.2 °C 69.9 °F /  21.1 °C 29.97 in /  1014.8 hPa ENE 0.2 mph /  0.3 km/h 1.2 mph /  1.9 km/h 78 % 0.00 in /  0 mm
12:42 77.6 °F /  25.3 °C 69.4 °F /  20.8 °C 29.98 in /  1015.1 hPa ENE 0.8 mph /  1.3 km/h 3.5 mph /  5.6 km/h 76 % 0.00 in /  0 mm
12:47 77.8 °F /  25.4 °C 69.6 °F /  20.9 °C 29.97 in /  1014.8 hPa ENE 2.5 mph /  4 km/h 3.5 mph /  5.6 km/h 76 % 0.00 in /  0 mm
12:52 78.2 °F /  25.7 °C 70.0 °F /  21.1 °C 29.97 in /  1014.8 hPa North 1.8 mph /  2.9 km/h 3.5 mph /  5.6 km/h 76 % 0.00 in /  0 mm
12:57 78.7 °F /  25.9 °C 70.1 °F /  21.2 °C 29.97 in /  1014.8 hPa North 0.2 mph /  0.3 km/h 2.3 mph /  3.7 km/h 75 % 0.00 in /  0 mm
13:02 78.8 °F /  26 °C 69.8 °F /  21 °C 29.97 in /  1014.8 hPa North 0.2 mph /  0.3 km/h 2.3 mph /  3.7 km/h 74 % 0.00 in /  0 mm
13:08 79.1 °F /  26.2 °C 70.9 °F /  21.6 °C 29.97 in /  1014.8 hPa NE 1.5 mph /  2.4 km/h 4.6 mph /  7.4 km/h 76 % 0.00 in /  0 mm
13:13 79.2 °F /  26.2 °C 70.2 °F /  21.2 °C 29.96 in /  1014.4 hPa NNE 1.1 mph /  1.8 km/h 3.5 mph /  5.6 km/h 74 % 0.00 in /  0 mm
13:18 79.4 °F /  26.3 °C 70.8 °F /  21.6 °C 29.97 in /  1014.8 hPa NNE 1.7 mph /  2.7 km/h 3.5 mph /  5.6 km/h 75 % 0.00 in /  0 mm
13:23 79.4 °F /  26.3 °C 70.0 °F /  21.1 °C 29.97 in /  1014.8 hPa NE 0.6 mph /  1 km/h 3.5 mph /  5.6 km/h 73 % 0.00 in /  0 mm
13:28 79.3 °F /  26.3 °C 70.3 °F /  21.3 °C 29.96 in /  1014.4 hPa ENE 2.0 mph /  3.2 km/h 3.5 mph /  5.6 km/h 74 % 0.00 in /  0 mm
13:33 79.2 °F /  26.2 °C 69.8 °F /  21 °C 29.96 in /  1014.4 hPa North 1.2 mph /  1.9 km/h 3.5 mph /  5.6 km/h 73 % 0.00 in /  0 mm
13:38 79.2 °F /  26.2 °C 70.6 °F /  21.4 °C 29.96 in /  1014.4 hPa NNE 1.0 mph /  1.6 km/h 2.3 mph /  3.7 km/h 75 % 0.00 in /  0 mm
13:43 79.2 °F /  26.2 °C 69.8 °F /  21 °C 29.96 in /  1014.4 hPa NNE 0.6 mph /  1 km/h 2.3 mph /  3.7 km/h 73 % 0.00 in /  0 mm
13:48 78.9 °F /  26.1 °C 69.9 °F /  21.1 °C 29.96 in /  1014.4 hPa NE 0.5 mph /  0.8 km/h 2.3 mph /  3.7 km/h 74 % 0.00 in /  0 mm
13:53 78.8 °F /  26 °C 69.8 °F /  21 °C 29.96 in /  1014.4 hPa NE 0.6 mph /  1 km/h 2.3 mph /  3.7 km/h 74 % 0.00 in /  0 mm
13:58 78.6 °F /  25.9 °C 70.4 °F /  21.3 °C 29.96 in /  1014.4 hPa NE 0.2 mph /  0.3 km/h 1.2 mph /  1.9 km/h 76 % 0.00 in /  0 mm
14:03 78.5 °F /  25.8 °C 69.9 °F /  21.1 °C 29.96 in /  1014.4 hPa NE 0.4 mph /  0.6 km/h 1.2 mph /  1.9 km/h 75 % 0.00 in /  0 mm
14:08 78.5 °F /  25.8 °C 69.9 °F /  21.1 °C 29.96 in /  1014.4 hPa NE 0.1 mph /  0.2 km/h 1.2 mph /  1.9 km/h 75 % 0.00 in /  0 mm
14:13 78.6 °F /  25.9 °C 70.0 °F /  21.1 °C 29.96 in /  1014.4 hPa Calm     75 % 0.00 in /  0 mm
14:14 78.6 °F /  25.9 °C 70.0 °F /  21.1 °C 29.96 in /  1014.4 hPa NE 0.6 mph /  1 km/h 1.2 mph /  1.9 km/h 75 % 0.00 in /  0 mm
14:19 78.6 °F /  25.9 °C 70.0 °F /  21.1 °C 29.95 in /  1014.1 hPa NE 0.3 mph /  0.5 km/h 2.0 mph /  3.2 km/h 75 % 0.00 in /  0 mm
14:24 78.5 °F /  25.8 °C 70.3 °F /  21.3 °C 29.96 in /  1014.4 hPa NE 1.6 mph /  2.6 km/h 3.5 mph /  5.6 km/h 76 % 0.00 in /  0 mm
14:29 78.2 °F /  25.7 °C 69.6 °F /  20.9 °C 29.95 in /  1014.1 hPa NE 0.2 mph /  0.3 km/h 1.2 mph /  1.9 km/h 75 % 0.00 in /  0 mm
14:34 78.1 °F /  25.6 °C 69.9 °F /  21.1 °C 29.95 in /  1014.1 hPa Calm     76 % 0.00 in /  0 mm
14:39 78.0 °F /  25.6 °C 69.8 °F /  21 °C 29.96 in /  1014.4 hPa Calm     76 % 0.00 in /  0 mm
14:44 77.9 °F /  25.5 °C 70.1 °F /  21.2 °C 29.96 in /  1014.4 hPa Calm   1.2 mph /  1.9 km/h 77 % 0.00 in /  0 mm
14:49 78.0 °F /  25.6 °C 70.6 °F /  21.4 °C 29.95 in /  1014.1 hPa Calm   1.2 mph /  1.9 km/h 78 % 0.00 in /  0 mm
14:54 78.1 °F /  25.6 °C 70.3 °F /  21.3 °C 29.95 in /  1014.1 hPa ENE 1.4 mph /  2.3 km/h 3.5 mph /  5.6 km/h 77 % 0.00 in /  0 mm
14:59 78.2 °F /  25.7 °C 70.4 °F /  21.3 °C 29.95 in /  1014.1 hPa ENE 0.7 mph /  1.1 km/h 2.3 mph /  3.7 km/h 77 % 0.00 in /  0 mm
15:04 78.1 °F /  25.6 °C 69.9 °F /  21.1 °C 29.95 in /  1014.1 hPa ENE 0.2 mph /  0.3 km/h 1.2 mph /  1.9 km/h 76 % 0.00 in /  0 mm
15:09 78.0 °F /  25.6 °C 70.2 °F /  21.2 °C 29.94 in /  1013.8 hPa Calm   1.2 mph /  1.9 km/h 77 % 0.00 in /  0 mm
15:14 77.9 °F /  25.5 °C 70.1 °F /  21.2 °C 29.94 in /  1013.8 hPa Calm     77 % 0.00 in /  0 mm
15:19 77.8 °F /  25.4 °C 70.0 °F /  21.1 °C 29.94 in /  1013.8 hPa ENE 0.1 mph /  0.2 km/h 1.2 mph /  1.9 km/h 77 % 0.00 in /  0 mm
15:25 77.6 °F /  25.3 °C 69.8 °F /  21 °C 29.94 in /  1013.8 hPa ENE 0.2 mph /  0.3 km/h 2.3 mph /  3.7 km/h 77 % 0.00 in /  0 mm
15:30 77.5 °F /  25.3 °C 70.1 °F /  21.2 °C 29.94 in /  1013.8 hPa Calm     78 % 0.00 in /  0 mm
15:35 77.3 °F /  25.2 °C 69.9 °F /  21.1 °C 29.94 in /  1013.8 hPa NE 0.6 mph /  1 km/h 2.3 mph /  3.7 km/h 78 % 0.00 in /  0 mm
15:40 77.1 °F /  25.1 °C 70.1 °F /  21.2 °C 29.94 in /  1013.8 hPa NE 0.3 mph /  0.5 km/h 2.3 mph /  3.7 km/h 79 % 0.00 in /  0 mm
15:45 77.0 °F /  25 °C 70.0 °F /  21.1 °C 29.94 in /  1013.8 hPa Calm     79 % 0.00 in /  0 mm
15:50 77.1 °F /  25.1 °C 70.5 °F /  21.4 °C 29.93 in /  1013.4 hPa Calm     80 % 0.00 in /  0 mm
15:55 77.2 °F /  25.1 °C 70.5 °F /  21.4 °C 29.93 in /  1013.4 hPa Calm     80 % 0.00 in /  0 mm
16:00 77.3 °F /  25.2 °C 70.6 °F /  21.4 °C 29.93 in /  1013.4 hPa Calm   1.2 mph /  1.9 km/h 80 % 0.00 in /  0 mm
16:05 77.3 °F /  25.2 °C 70.3 °F /  21.3 °C 29.93 in /  1013.4 hPa NE 0.2 mph /  0.3 km/h 1.2 mph /  1.9 km/h 79 % 0.00 in /  0 mm
16:10 77.4 °F /  25.2 °C 70.7 °F /  21.5 °C 29.93 in /  1013.4 hPa Calm     80 % 0.00 in /  0 mm
16:15 77.5 °F /  25.3 °C 70.8 °F /  21.6 °C 29.92 in /  1013.1 hPa NE 0.2 mph /  0.3 km/h 1.2 mph /  1.9 km/h 80 % 0.00 in /  0 mm
16:20 77.5 °F /  25.3 °C 70.1 °F /  21.2 °C 29.92 in /  1013.1 hPa Calm     78 % 0.00 in /  0 mm
16:21 77.5 °F /  25.3 °C 70.1 °F /  21.2 °C 29.92 in /  1013.1 hPa Calm     78 % 0.00 in /  0 mm
16:26 77.5 °F /  25.3 °C 69.7 °F /  20.9 °C 29.92 in /  1013.1 hPa Calm     77 % 0.00 in /  0 mm
16:31 77.6 °F /  25.3 °C 70.2 °F /  21.2 °C 29.92 in /  1013.1 hPa Calm     78 % 0.00 in /  0 mm
16:36 77.6 °F /  25.3 °C 70.2 °F /  21.2 °C 29.92 in /  1013.1 hPa Calm     78 % 0.00 in /  0 mm
16:41 77.7 °F /  25.4 °C 70.3 °F /  21.3 °C 29.92 in /  1013.1 hPa Calm     78 % 0.00 in /  0 mm
16:46 77.8 °F /  25.4 °C 70.4 °F /  21.3 °C 29.92 in /  1013.1 hPa Calm     78 % 0.00 in /  0 mm
16:52 77.8 °F /  25.4 °C 69.6 °F /  20.9 °C 29.92 in /  1013.1 hPa Calm     76 % 0.00 in /  0 mm
16:57 77.9 °F /  25.5 °C 70.5 °F /  21.4 °C 29.92 in /  1013.1 hPa Calm     78 % 0.00 in /  0 mm
17:02 78.0 °F /  25.6 °C 70.6 °F /  21.4 °C 29.92 in /  1013.1 hPa Calm     78 % 0.00 in /  0 mm
17:07 78.0 °F /  25.6 °C 70.6 °F /  21.4 °C 29.92 in /  1013.1 hPa Calm     78 % 0.00 in /  0 mm
17:12 78.1 °F /  25.6 °C 70.7 °F /  21.5 °C 29.92 in /  1013.1 hPa Calm     78 % 0.00 in /  0 mm
17:17 78.2 °F /  25.7 °C 70.8 °F /  21.6 °C 29.92 in /  1013.1 hPa Calm     78 % 0.00 in /  0 mm
17:22 78.2 °F /  25.7 °C 70.8 °F /  21.6 °C 29.92 in /  1013.1 hPa Calm     78 % 0.00 in /  0 mm
17:27 78.3 °F /  25.7 °C 70.9 °F /  21.6 °C 29.92 in /  1013.1 hPa Calm     78 % 0.00 in /  0 mm
17:32 78.4 °F /  25.8 °C 71.3 °F /  21.8 °C 29.92 in /  1013.1 hPa Calm     79 % 0.00 in /  0 mm
17:37 78.4 °F /  25.8 °C 71.0 °F /  21.7 °C 29.92 in /  1013.1 hPa Calm     78 % 0.00 in /  0 mm
17:42 78.4 °F /  25.8 °C 71.0 °F /  21.7 °C 29.92 in /  1013.1 hPa Calm     78 % 0.00 in /  0 mm
17:47 78.4 °F /  25.8 °C 71.0 °F /  21.7 °C 29.92 in /  1013.1 hPa Calm     78 % 0.00 in /  0 mm
17:52 78.5 °F /  25.8 °C 71.4 °F /  21.9 °C 29.91 in /  1012.8 hPa Calm     79 % 0.00 in /  0 mm
17:57 78.4 °F /  25.8 °C 69.4 °F /  20.8 °C 29.91 in /  1012.8 hPa Calm     74 % 0.00 in /  0 mm
18:02 78.4 °F /  25.8 °C 69.4 °F /  20.8 °C 29.91 in /  1012.8 hPa West 1.0 mph /  1.6 km/h 3.5 mph /  5.6 km/h 74 % 0.00 in /  0 mm
18:07 78.4 °F /  25.8 °C 69.0 °F /  20.6 °C 29.91 in /  1012.8 hPa Calm     73 % 0.00 in /  0 mm
18:12 78.3 °F /  25.7 °C 68.9 °F /  20.5 °C 29.91 in /  1012.8 hPa Calm     73 % 0.00 in /  0 mm
18:17 78.3 °F /  25.7 °C 68.9 °F /  20.5 °C 29.91 in /  1012.8 hPa Calm     73 % 0.00 in /  0 mm
18:22 78.2 °F /  25.7 °C 68.8 °F /  20.4 °C 29.91 in /  1012.8 hPa West 0.2 mph /  0.3 km/h 1.0 mph /  1.6 km/h 73 % 0.00 in /  0 mm
18:27 78.2 °F /  25.7 °C 68.8 °F /  20.4 °C 29.90 in /  1012.4 hPa Calm     73 % 0.00 in /  0 mm
18:32 78.1 °F /  25.6 °C 69.1 °F /  20.6 °C 29.91 in /  1012.8 hPa West 0.3 mph /  0.5 km/h 1.2 mph /  1.9 km/h 74 % 0.00 in /  0 mm
18:37 78.0 °F /  25.6 °C 68.6 °F /  20.3 °C 29.90 in /  1012.4 hPa Calm     73 % 0.00 in /  0 mm
18:42 77.8 °F /  25.4 °C 68.4 °F /  20.2 °C 29.91 in /  1012.8 hPa Calm     73 % 0.00 in /  0 mm
18:47 77.7 °F /  25.4 °C 68.4 °F /  20.2 °C 29.91 in /  1012.8 hPa Calm     73 % 0.00 in /  0 mm
18:53 77.6 °F /  25.3 °C 68.7 °F /  20.4 °C 29.91 in /  1012.8 hPa Calm     74 % 0.00 in /  0 mm
18:58 77.5 °F /  25.3 °C 68.6 °F /  20.3 °C 29.91 in /  1012.8 hPa Calm     74 % 0.00 in /  0 mm
19:03 77.4 °F /  25.2 °C 68.1 °F /  20.1 °C 29.91 in /  1012.8 hPa Calm     73 % 0.00 in /  0 mm
19:08 77.2 °F /  25.1 °C 68.3 °F /  20.2 °C 29.91 in /  1012.8 hPa Calm   1.2 mph /  1.9 km/h 74 % 0.00 in /  0 mm
19:13 77.1 °F /  25.1 °C 68.2 °F /  20.1 °C 29.92 in /  1013.1 hPa Calm   2.3 mph /  3.7 km/h 74 % 0.00 in /  0 mm
19:18 77.0 °F /  25 °C 68.1 °F /  20.1 °C 29.91 in /  1012.8 hPa Calm   1.2 mph /  1.9 km/h 74 % 0.00 in /  0 mm
19:23 76.8 °F /  24.9 °C 68.3 °F /  20.2 °C 29.91 in /  1012.8 hPa Calm     75 % 0.00 in /  0 mm
19:28 76.7 °F /  24.8 °C 68.2 °F /  20.1 °C 29.91 in /  1012.8 hPa Calm     75 % 0.00 in /  0 mm
19:33 76.6 °F /  24.8 °C 68.5 °F /  20.3 °C 29.91 in /  1012.8 hPa Calm     76 % 0.00 in /  0 mm
19:38 76.5 °F /  24.7 °C 68.4 °F /  20.2 °C 29.91 in /  1012.8 hPa Calm     76 % 0.00 in /  0 mm
19:43 76.4 °F /  24.7 °C 68.7 °F /  20.4 °C 29.91 in /  1012.8 hPa Calm     77 % 0.00 in /  0 mm
19:48 76.3 °F /  24.6 °C 68.6 °F /  20.3 °C 29.92 in /  1013.1 hPa Calm     77 % 0.00 in /  0 mm
19:53 76.2 °F /  24.6 °C 68.5 °F /  20.3 °C 29.92 in /  1013.1 hPa Calm     77 % 0.00 in /  0 mm
19:58 76.0 °F /  24.4 °C 68.6 °F /  20.3 °C 29.92 in /  1013.1 hPa Calm     78 % 0.00 in /  0 mm
20:03 75.9 °F /  24.4 °C 68.5 °F /  20.3 °C 29.92 in /  1013.1 hPa Calm     78 % 0.00 in /  0 mm
20:08 75.8 °F /  24.3 °C 68.4 °F /  20.2 °C 29.91 in /  1012.8 hPa SE 0.4 mph /  0.6 km/h 1.2 mph /  1.9 km/h 78 % 0.00 in /  0 mm
20:13 75.6 °F /  24.2 °C 68.6 °F /  20.3 °C 29.91 in /  1012.8 hPa Calm     79 % 0.00 in /  0 mm
20:18 75.4 °F /  24.1 °C 68.4 °F /  20.2 °C 29.92 in /  1013.1 hPa Calm     79 % 0.00 in /  0 mm
20:23 75.3 °F /  24.1 °C 68.3 °F /  20.2 °C 29.92 in /  1013.1 hPa Calm     79 % 0.00 in /  0 mm
20:28 75.1 °F /  23.9 °C 68.1 °F /  20.1 °C 29.92 in /  1013.1 hPa Calm   1.0 mph /  1.6 km/h 79 % 0.00 in /  0 mm
20:33 74.9 °F /  23.8 °C 68.3 °F /  20.2 °C 29.92 in /  1013.1 hPa SE 0.1 mph /  0.2 km/h 1.2 mph /  1.9 km/h 80 % 0.00 in /  0 mm
20:38 74.8 °F /  23.8 °C 68.2 °F /  20.1 °C 29.91 in /  1012.8 hPa Calm   1.2 mph /  1.9 km/h 80 % 0.00 in /  0 mm
20:43 74.6 °F /  23.7 °C 68.4 °F /  20.2 °C 29.92 in /  1013.1 hPa Calm     81 % 0.00 in /  0 mm
20:48 74.5 °F /  23.6 °C 68.3 °F /  20.2 °C 29.91 in /  1012.8 hPa Calm     81 % 0.00 in /  0 mm
20:53 74.4 °F /  23.6 °C 68.5 °F /  20.3 °C 29.91 in /  1012.8 hPa Calm   1.2 mph /  1.9 km/h 82 % 0.00 in /  0 mm
20:58 74.3 °F /  23.5 °C 68.4 °F /  20.2 °C 29.92 in /  1013.1 hPa Calm     82 % 0.00 in /  0 mm
21:03 74.2 °F /  23.4 °C 68.3 °F /  20.2 °C 29.92 in /  1013.1 hPa Calm     82 % 0.00 in /  0 mm
21:08 74.1 °F /  23.4 °C 68.3 °F /  20.2 °C 29.92 in /  1013.1 hPa Calm     82 % 0.00 in /  0 mm
21:13 74.0 °F /  23.3 °C 68.5 °F /  20.3 °C 29.92 in /  1013.1 hPa Calm     83 % 0.00 in /  0 mm
21:18 73.9 °F /  23.3 °C 68.4 °F /  20.2 °C 29.92 in /  1013.1 hPa Calm     83 % 0.00 in /  0 mm
21:23 73.9 °F /  23.3 °C 68.8 °F /  20.4 °C 29.91 in /  1012.8 hPa Calm     84 % 0.00 in /  0 mm
21:28 73.8 °F /  23.2 °C 68.7 °F /  20.4 °C 29.91 in /  1012.8 hPa Calm     84 % 0.00 in /  0 mm
21:33 73.8 °F /  23.2 °C 68.7 °F /  20.4 °C 29.91 in /  1012.8 hPa Calm     84 % 0.00 in /  0 mm
21:38 73.7 °F /  23.2 °C 68.6 °F /  20.3 °C 29.91 in /  1012.8 hPa Calm     84 % 0.00 in /  0 mm
21:43 73.6 °F /  23.1 °C 68.5 °F /  20.3 °C 29.91 in /  1012.8 hPa Calm     84 % 0.00 in /  0 mm
21:48 73.5 °F /  23.1 °C 68.4 °F /  20.2 °C 29.91 in /  1012.8 hPa Calm     84 % 0.00 in /  0 mm
21:54 73.5 °F /  23.1 °C 68.4 °F /  20.2 °C 29.91 in /  1012.8 hPa Calm     84 % 0.00 in /  0 mm
21:59 73.3 °F /  22.9 °C 68.5 °F /  20.3 °C 29.91 in /  1012.8 hPa Calm     85 % 0.00 in /  0 mm
22:04 73.2 °F /  22.9 °C 68.4 °F /  20.2 °C 29.91 in /  1012.8 hPa Calm     85 % 0.00 in /  0 mm
22:09 73.1 °F /  22.8 °C 68.3 °F /  20.2 °C 29.92 in /  1013.1 hPa Calm     85 % 0.00 in /  0 mm
22:14 73.0 °F /  22.8 °C 68.2 °F /  20.1 °C 29.92 in /  1013.1 hPa Calm     85 % 0.00 in /  0 mm
22:19 72.9 °F /  22.7 °C 68.1 °F /  20.1 °C 29.92 in /  1013.1 hPa Calm     85 % 0.00 in /  0 mm
22:24 72.8 °F /  22.7 °C 68.4 °F /  20.2 °C 29.91 in /  1012.8 hPa Calm     86 % 0.00 in /  0 mm
22:29 72.7 °F /  22.6 °C 68.3 °F /  20.2 °C 29.91 in /  1012.8 hPa Calm     86 % 0.00 in /  0 mm
22:34 72.6 °F /  22.6 °C 68.2 °F /  20.1 °C 29.91 in /  1012.8 hPa Calm     86 % 0.00 in /  0 mm
22:39 72.4 °F /  22.4 °C 68.0 °F /  20 °C 29.91 in /  1012.8 hPa Calm     86 % 0.00 in /  0 mm
22:44 72.3 °F /  22.4 °C 67.9 °F /  19.9 °C 29.91 in /  1012.8 hPa Calm     86 % 0.00 in /  0 mm
22:49 72.2 °F /  22.3 °C 67.8 °F /  19.9 °C 29.91 in /  1012.8 hPa Calm     86 % 0.00 in /  0 mm
22:54 72.1 °F /  22.3 °C 67.7 °F /  19.8 °C 29.91 in /  1012.8 hPa Calm     86 % 0.00 in /  0 mm
22:59 72.0 °F /  22.2 °C 67.9 °F /  19.9 °C 29.91 in /  1012.8 hPa Calm     87 % 0.00 in /  0 mm
23:04 71.9 °F /  22.2 °C 67.8 °F /  19.9 °C 29.91 in /  1012.8 hPa Calm     87 % 0.00 in /  0 mm
23:09 71.7 °F /  22.1 °C 67.6 °F /  19.8 °C 29.91 in /  1012.8 hPa Calm     87 % 0.00 in /  0 mm
23:14 71.6 °F /  22 °C 67.5 °F /  19.7 °C 29.91 in /  1012.8 hPa Calm     87 % 0.00 in /  0 mm
23:19 71.5 °F /  21.9 °C 67.8 °F /  19.9 °C 29.91 in /  1012.8 hPa Calm     88 % 0.00 in /  0 mm
23:24 71.5 °F /  21.9 °C 67.8 °F /  19.9 °C 29.91 in /  1012.8 hPa SE 0.1 mph /  0.2 km/h   88 % 0.00 in /  0 mm
23:29 71.4 °F /  21.9 °C 68.0 °F /  20 °C 29.91 in /  1012.8 hPa Calm     89 % 0.00 in /  0 mm
23:34 71.3 °F /  21.8 °C 67.9 °F /  19.9 °C 29.91 in /  1012.8 hPa Calm     89 % 0.00 in /  0 mm
23:39 71.2 °F /  21.8 °C 68.1 °F /  20.1 °C 29.91 in /  1012.8 hPa Calm     90 % 0.00 in /  0 mm
23:44 71.2 °F /  21.8 °C 68.1 °F /  20.1 °C 29.90 in /  1012.4 hPa Calm     90 % 0.00 in /  0 mm
23:49 71.1 °F /  21.7 °C 68.0 °F /  20 °C 29.91 in /  1012.8 hPa Calm     90 % 0.00 in /  0 mm
23:54 71.1 °F /  21.7 °C 68.0 °F /  20 °C 29.90 in /  1012.4 hPa Calm     90 % 0.00 in /  0 mm
23:59 71.0 °F /  21.7 °C 67.9 °F /  19.9 °C 29.91 in /  1012.8 hPa Calm     90 % 0.00 in /  0 mm
Crab Meadow Weather
Compliments of Weather Underground - 3 mb

Script developed by  Jim McMurry - jmcmurry@mwt.net Adapted for the template by  Wim van der Kuil - Leuven-Template.eu

Lightning: Lightning's return stroke is hotter than the surface of the sun. Lightning is 50,000 degrees F. The sun is about 11,000 degrees F.